SCC weather

Deadhorse Airport
Deadhorse, Alaska, United States

Public forecast

Using degrees Fahrenheit for public forecast. Weather courtesy of forecast.io.

METAR (pilot weather report)

Retrieved 2019/05/20 00:05 UTC (6 minutes ago):

PASC 200005Z 08014KT 6SM BR OVC007 00/M03 A2995 RMK AO2 T00001028

TAF (pilot weather forecast)

Forecast is more than 12 hours old.

Retrieved 2019/05/19 00:33 UTC (24 hours ago):

TAF PASC 192329Z 2000/2024 07016KT 6SM BR OVC010 FM200300 07010KT 1 1/2SM BR OVC007 FM200900 06009KT 1/2SM FG BKN004 OVC007 FM201800 07009KT 1 1/2SM BR SCT004 OVC007